Latest Weather Observations for Narrabri

IDN60801

Issued at 11:03 pm EST Friday 22 May 2015 (issued every 30 minutes, with the page automatically refreshed every 10 minutes)

About weather observations | Map of weather stations | Latest weather observations for NSW | Other Formats
Station Details ID: 054038 Name: NARRABRI AIRPORT AWS Lat: -30.32 Lon: 149.83 Height: 229.02 m
Data from the previous 72 hours. | See also: Recent months at Narrabri
Date/Time
EST
Temp
°C
App
Temp
°C
Dew
Point
Rel
Hum
%
Delta-T
°C
Wind Press
QNH
hPa
Press
MSL
hPa
Rain
since 9 am
mm
Dir
 
Spd
km/h
Gust
km/h
Spd
kts
Gust
kts
22/11:00pm 11.5 8.6 8.2 80 1.6 SSE 13 24 7 13 1024.5 1024.3 0.2
22/10:30pm 11.6 9.0 7.9 78 1.8 SSE 11 13 6 7 1024.4 1024.2 0.2
22/10:00pm 12.9 9.2 8.0 72 2.4 SSE 17 20 9 11 1024.3 1024.1 0.2
22/09:30pm 13.5 10.0 8.8 73 2.4 SSE 17 24 9 13 1024.1 1023.9 0.2
22/09:00pm 13.8 11.3 9.8 77 2.1 SSE 13 19 7 10 1024.0 1023.8 0.2
22/08:30pm 14.3 11.1 9.9 75 2.3 SSE 17 24 9 13 1023.8 1023.6 0.2
22/08:00pm 14.2 11.0 10.0 76 2.2 SSE 17 24 9 13 1023.4 1023.2 0.2
22/07:30pm 14.5 10.9 9.9 74 2.4 SSE 19 26 10 14 1023.1 1022.9 0.2
22/07:00pm 14.6 11.6 10.8 78 2.0 SE 17 26 9 14 1023.0 1022.8 0.2
22/06:30pm 15.6 12.9 10.2 70 2.9 S 15 19 8 10 1022.1 1021.9 0.2
22/06:00pm 15.5 13.9 10.3 71 2.8 S 9 11 5 6 1021.6 1021.4 0.2
22/05:30pm 16.0 13.9 9.7 66 3.3 SSE 11 17 6 9 1021.1 1020.8 0.2
22/05:00pm 16.8 13.7 9.0 60 4.1 SSE 15 20 8 11 1020.7 1020.5 0.2
22/04:30pm 16.9 14.4 9.8 63 3.8 SSW 13 20 7 11 1020.4 1020.2 0.2
22/04:00pm 17.0 14.5 9.7 62 3.9 SSW 13 19 7 10 1020.3 1020.1 0.0
22/03:30pm 17.0 13.7 9.7 62 3.9 S 17 22 9 12 1020.1 1019.9 0.0
22/03:00pm 17.2 13.7 8.9 58 4.3 SSW 17 24 9 13 1019.6 1019.4 0.0
22/02:30pm 16.9 14.9 11.4 70 3.0 WSW 13 17 7 9 1019.5 1019.3 0.0
22/02:00pm 16.4 13.4 10.7 69 3.1 SW 17 22 9 12 1019.1 1018.9 0.0
22/01:30pm 16.2 13.9 10.3 68 3.2 SW 13 19 7 10 1019.0 1018.8 0.0
22/01:00pm 16.7 14.5 10.8 68 3.2 SW 13 20 7 11 1019.0 1018.8 0.0
22/12:30pm 16.0 13.2 9.9 67 3.2 WSW 15 22 8 12 1019.2 1019.0 0.0
22/12:00pm 14.8 11.8 10.8 77 2.1 WSW 17 22 9 12 1019.5 1019.3 0.0
22/11:30am 14.9 12.5 9.9 72 2.6 WSW 13 17 7 9 1019.7 1019.5 0.0
22/11:00am 14.4 11.5 9.8 74 2.4 WSW 15 19 8 10 1019.8 1019.6 0.0
22/10:30am 14.3 11.9 10.1 76 2.2 SW 13 19 7 10 1019.8 1019.6 0.0
22/10:00am 13.6 11.2 10.0 79 1.9 WSW 13 17 7 9 1019.9 1019.7 0.0
22/09:33am 12.7 10.7 11.6 93 0.6 W 13 17 7 9 1019.8 1019.6 0.0
22/09:30am 12.7 10.8 11.8 94 0.5 W 13 17 7 9 1019.8 1019.6 0.0
22/09:00am 12.2 10.4 12.2 100 0.0 WNW 13 17 7 9 1019.5 1019.3 1.6
22/08:30am 12.2 10.4 12.2 100 0.0 WNW 13 17 7 9 1019.3 1019.1 1.6
22/08:00am 11.6 - - - - WNW 13 17 7 9 1019.1 1018.9 1.6
22/07:30am 11.3 - - - - NW 13 15 7 8 1018.8 1018.6 1.6
22/07:00am 11.2 - - - - WNW 13 17 7 9 1018.5 1018.3 1.6
22/06:30am 11.2 - - - - NW 13 15 7 8 1018.1 1017.9 1.6
22/06:00am 11.0 - - - - N 7 9 4 5 1017.9 1017.7 1.6
22/05:30am 10.8 - - - - N 9 11 5 6 1017.5 1017.2 1.6
22/05:06am 10.6 - - - - N 11 15 6 8 1017.4 1017.1 1.6
22/05:00am 10.5 - - - - N 11 13 6 7 1017.4 1017.1 1.6
22/04:49am 10.4 - - - - N 11 13 6 7 1017.4 1017.1 1.6
22/04:30am 10.9 - - - - N 9 11 5 6 1017.5 1017.2 1.6
22/04:05am 10.8 - - - - NNE 9 11 5 6 1017.7 1017.5 1.6
22/04:00am 10.9 - - - - NNE 9 11 5 6 1017.7 1017.5 1.6
22/03:56am 10.9 - - - - NNE 9 11 5 6 1017.7 1017.5 1.6
22/03:30am 10.8 - - - - N 9 13 5 7 1017.9 1017.7 1.6
22/03:00am 10.6 - - - - N 9 13 5 7 1017.9 1017.7 1.6
22/02:51am 10.4 - - - - N 9 13 5 7 1017.9 1017.7 1.6
22/02:34am 10.1 - - - - NNW 9 13 5 7 1017.9 1017.7 1.6
22/02:30am 10.2 - - - - NNW 11 13 6 7 1017.9 1017.7 1.6
22/02:01am 10.8 - - - - NW 13 17 7 9 1018.0 1017.8 1.6
22/02:00am 10.8 - - - - NW 13 17 7 9 1018.1 1017.9 1.6
22/01:30am 11.2 - - - - W 15 20 8 11 1018.3 1018.1 1.6
22/01:00am 11.1 8.6 11.0 99 0.1 WNW 15 20 8 11 1018.4 1018.2 1.6
22/12:30am 11.3 - - - - E 11 17 6 9 1017.6 1017.4 1.6
22/12:00am 11.5 - - - - ENE 15 19 8 10 1018.2 1018.0 1.4
 
Date/Time
EST
Temp
°C
App
Temp
°C
Dew
Point
Rel
Hum
%
Delta-T
°C
Wind Press
QNH
hPa
Press
MSL
hPa
Rain
since 9 am
mm
Dir
 
Spd
km/h
Gust
km/h
Spd
kts
Gust
kts
21/11:30pm 11.1 - - - - ENE 13 15 7 8 1018.7 1018.5 1.4
21/11:00pm 11.4 - - - - N 9 13 5 7 1019.3 1019.1 1.4
21/10:30pm 11.6 - - - - NNW 13 20 7 11 1019.5 1019.3 1.2
21/10:06pm 11.8 - - - - N 15 20 8 11 1019.6 1019.4 0.6
21/10:00pm 11.8 9.1 11.8 100 0.0 NNW 17 22 9 12 1019.5 1019.3 0.4
21/09:53pm 12.0 9.4 12.0 100 0.0 NNW 17 22 9 12 1019.5 1019.3 0.4
21/09:30pm 12.0 11.3 12.0 100 0.0 NW 7 9 4 5 1019.0 1018.8 0.2
21/09:00pm 12.1 11.4 12.1 100 0.0 WSW 7 11 4 6 1018.8 1018.6 0.2
21/08:30pm 12.4 10.4 11.6 95 0.4 SW 13 20 7 11 1018.7 1018.5 0.2
21/08:00pm 13.7 12.4 13.7 100 0.0 NW 13 24 7 13 1018.6 1018.4 0.0
21/07:30pm 13.3 12.6 13.3 100 0.0 NNE 9 11 5 6 1018.4 1018.2 0.0
21/07:00pm 13.8 13.9 13.8 100 0.0 N 6 7 3 4 1018.4 1018.2 0.0
21/06:30pm 14.0 13.6 14.0 100 0.0 N 9 11 5 6 1018.2 1018.0 0.0
21/06:00pm 14.5 13.4 14.2 98 0.2 NW 13 15 7 8 1018.2 1018.0 0.0
21/05:30pm 14.9 13.8 14.3 96 0.3 NW 13 17 7 9 1018.1 1017.9 0.0
21/05:00pm 15.4 13.9 13.1 86 1.3 NW 13 17 7 9 1017.8 1017.6 0.0
21/04:30pm 15.9 14.3 12.8 82 1.7 NNW 13 17 7 9 1017.7 1017.5 0.0
21/04:00pm 16.5 15.3 12.8 79 2.1 NW 11 15 6 8 1017.7 1017.5 0.0
21/03:30pm 16.6 15.6 12.4 76 2.3 WSW 9 13 5 7 1017.9 1017.7 0.0
21/03:00pm 16.8 15.9 12.7 77 2.3 WSW 9 13 5 7 1017.9 1017.7 0.0
21/02:30pm 17.3 16.2 13.2 77 2.3 W 11 15 6 8 1018.0 1017.8 0.0
21/02:00pm 16.9 15.4 13.0 78 2.2 W 13 17 7 9 1018.4 1018.2 0.0
21/01:30pm 17.0 15.1 12.9 77 2.3 WSW 15 20 8 11 1018.7 1018.5 0.0
21/01:00pm 16.6 14.4 13.3 81 1.9 WSW 17 20 9 11 1019.1 1018.9 0.0
21/12:30pm 16.2 13.9 12.9 81 1.9 W 17 20 9 11 1019.8 1019.6 0.0
21/12:00pm 16.3 14.9 13.4 83 1.6 WSW 13 17 7 9 1020.2 1020.0 0.0
21/11:30am 15.9 14.6 13.6 86 1.3 WSW 13 19 7 10 1020.6 1020.4 0.0
21/11:05am 15.9 14.5 13.4 85 1.4 WSW 13 17 7 9 1020.2 1020.0 0.0
21/11:00am 15.9 14.4 13.2 84 1.5 SW 13 19 7 10 1020.3 1020.1 0.0
21/10:30am 15.7 15.2 13.9 89 1.0 WSW 9 13 5 7 1020.5 1020.3 0.0
21/10:00am 15.2 14.6 14.6 96 0.3 W 11 13 6 7 1020.9 1020.6 0.0
21/09:30am 14.6 14.4 14.6 100 0.0 WSW 9 13 5 7 1021.0 1020.7 0.0
21/09:00am 14.2 - - - - SW 11 13 6 7 1020.9 1020.6 6.8
21/08:49am 14.2 - - - - W 9 11 5 6 1020.9 1020.6 6.8
21/08:30am 14.1 - - - - WSW 11 15 6 8 1020.4 1020.2 6.8
21/08:00am 13.9 - - - - WNW 7 9 4 5 1020.4 1020.2 6.8
21/07:54am 13.8 - - - - WNW 7 9 4 5 1020.4 1020.2 6.8
21/07:37am 13.7 - - - - N 6 9 3 5 1020.3 1020.1 6.8
21/07:30am 13.8 - - - - NNW 7 9 4 5 1020.4 1020.2 6.8
21/07:00am 13.8 - - - - WNW 9 11 5 6 1020.5 1020.3 6.6
21/06:30am 13.8 - - - - WNW 6 9 3 5 1019.4 1019.2 6.0
21/06:00am 13.8 - - - - NNE 7 11 4 6 1019.3 1019.1 5.6
21/05:30am 13.8 - - - - NE 6 11 3 6 1018.7 1018.5 5.4
21/05:00am 13.8 - - - - NW 7 9 4 5 1019.8 1019.6 5.0
21/04:30am 13.9 - - - - S 2 6 1 3 1019.1 1018.9 4.2
21/04:00am 13.8 - - - - SSE 7 9 4 5 1018.7 1018.5 4.2
21/03:30am 13.9 - - - - WSW 7 9 4 5 1019.6 1019.4 3.4
21/03:00am 14.0 - - - - SW 7 11 4 6 1019.2 1019.0 3.0
21/02:30am 14.1 - - - - SSE 9 13 5 7 1018.6 1018.4 2.6
21/02:00am 14.3 13.2 14.3 100 0.0 SE 13 15 7 8 1018.5 1018.3 2.4
21/01:30am 14.4 13.3 14.4 100 0.0 SE 13 20 7 11 1018.7 1018.5 2.4
21/01:00am 14.5 - 14.6 - - SSE 6 15 3 8 1019.5 1019.3 2.4
21/12:30am 14.8 15.0 14.8 100 0.0 ESE 7 11 4 6 1020.7 1020.5 2.2
21/12:00am 15.0 - - - - CALM 0 0 0 0 1020.4 1020.2 2.0
 
Date/Time
EST
Temp
°C
App
Temp
°C
Dew
Point
Rel
Hum
%
Delta-T
°C
Wind Press
QNH
hPa
Press
MSL
hPa
Rain
since 9 am
mm
Dir
 
Spd
km/h
Gust
km/h
Spd
kts
Gust
kts
20/11:30pm 15.0 - - - - S 7 11 4 6 1020.3 1020.1 1.8
20/11:00pm 15.2 - - - - CALM 0 7 0 4 1020.6 1020.4 1.6
20/10:30pm 15.1 15.1 15.1 100 0.0 ESE 9 13 5 7 1019.9 1019.7 1.6
20/10:00pm 15.3 15.3 15.3 100 0.0 S 9 15 5 8 1020.5 1020.3 1.4
20/09:30pm 15.7 16.1 15.2 97 0.3 SW 7 13 4 7 1021.0 1020.7 1.0
20/09:00pm 16.2 16.3 15.6 96 0.4 W 9 13 5 7 1020.9 1020.6 0.6
20/08:30pm 16.9 17.0 14.5 86 1.4 WNW 7 13 4 7 1020.4 1020.2 0.0
20/08:00pm 17.5 15.9 13.8 79 2.1 WSW 15 22 8 12 1019.7 1019.5 0.0
20/07:30pm 17.8 15.2 13.9 78 2.2 WSW 20 30 11 16 1019.2 1019.0 0.0
20/07:00pm 17.9 15.0 14.0 78 2.2 WSW 22 30 12 16 1018.7 1018.5 0.0
20/06:30pm 18.6 13.8 14.5 77 2.4 WSW 33 48 18 26 1018.3 1018.1 0.0
20/06:00pm 21.3 17.1 12.4 57 5.1 NW 26 57 14 31 1016.9 1016.6 0.0
20/05:58pm 22.0 18.8 11.4 51 6.0 NNW 19 56 10 30 1016.7 1016.4 0.0
20/05:57pm 21.9 18.9 10.7 49 6.2 NNW 17 41 9 22 1016.6 1016.3 0.0
20/05:30pm 22.4 19.6 9.9 45 6.9 N 15 17 8 9 1015.3 1015.1 0.0
20/05:00pm 23.3 20.1 10.0 43 7.3 N 17 19 9 10 1015.0 1014.8 0.0
20/04:30pm 24.1 20.5 9.7 40 7.9 N 19 26 10 14 1014.7 1014.5 0.0
20/04:00pm 26.0 22.0 10.6 38 8.7 N 22 28 12 15 1014.9 1014.7 0.0
20/03:30pm 26.3 22.1 11.2 38 8.6 N 24 32 13 17 1015.1 1014.9 0.0
20/03:00pm 25.3 22.1 11.8 43 7.8 NNW 20 28 11 15 1015.5 1015.3 0.0
20/02:30pm 24.7 21.5 12.0 45 7.3 N 20 30 11 16 1015.7 1015.5 0.0
20/02:00pm 25.5 23.0 12.4 44 7.6 NNW 17 24 9 13 1016.0 1015.8 0.0
20/01:30pm 25.4 22.4 12.6 45 7.5 NW 20 30 11 16 1016.5 1016.2 0.0
20/01:00pm 25.0 22.1 12.9 47 7.1 NNW 20 32 11 17 1016.6 1016.3 0.0
20/12:30pm 24.8 21.3 13.4 49 6.7 NNW 24 33 13 18 1016.9 1016.6 0.0
20/12:00pm 25.5 22.3 14.3 50 6.7 N 24 33 13 18 1017.3 1017.0 0.0
20/11:30am 24.8 21.3 14.6 53 6.1 N 26 33 14 18 1017.9 1017.7 0.0
20/11:00am 24.4 21.1 15.1 56 5.6 N 26 35 14 19 1018.4 1018.2 0.0
20/10:30am 23.5 20.1 14.8 58 5.2 N 26 35 14 19 1018.8 1018.6 0.0
20/10:00am 22.6 19.1 14.4 60 4.9 N 26 33 14 18 1019.1 1018.9 0.0
20/09:30am 22.5 19.8 14.6 61 4.7 N 22 28 12 15 1019.3 1019.1 0.0
20/09:00am 21.5 18.4 14.6 65 4.1 N 24 33 13 18 1019.2 1019.0 0.0
20/08:30am 20.7 17.8 15.0 70 3.4 NNE 24 32 13 17 1018.9 1018.7 0.0
20/08:00am 19.5 16.8 14.7 74 2.8 NNE 22 30 12 16 1018.9 1018.7 0.0
20/07:30am 18.4 16.4 14.9 80 2.1 NNE 19 22 10 12 1018.6 1018.4 0.0
20/07:00am 17.3 15.2 14.8 85 1.5 NNE 19 22 10 12 1018.3 1018.1 0.0
20/06:30am 17.3 14.9 14.4 83 1.7 NNE 20 24 11 13 1018.0 1017.8 0.0
20/06:00am 17.3 15.0 14.2 82 1.8 NNE 19 22 10 12 1017.9 1017.7 0.0
20/05:30am 17.6 15.2 14.3 81 1.9 NNE 20 28 11 15 1017.5 1017.2 0.0
20/05:00am 17.6 15.3 14.1 80 2.0 NNE 19 24 10 13 1017.4 1017.1 0.0
20/04:30am 17.7 15.4 14.0 79 2.1 NNE 19 24 10 13 1017.2 1016.9 0.0
20/04:00am 17.8 15.2 13.9 78 2.2 NNE 20 26 11 14 1017.1 1016.8 0.0
20/03:30am 17.8 15.8 13.9 78 2.2 NNE 17 24 9 13 1017.1 1016.8 0.0
20/03:00am 17.4 15.3 13.7 79 2.1 NNE 17 19 9 10 1017.2 1016.9 0.0
20/02:30am 17.9 15.8 13.6 76 2.5 NNE 17 20 9 11 1017.3 1017.0 0.0
20/02:00am 18.5 16.1 13.8 74 2.7 NNE 19 24 10 13 1017.3 1017.0 0.0
20/01:30am 18.6 16.2 13.9 74 2.7 NNE 19 24 10 13 1017.3 1017.0 0.0
20/01:00am 18.7 16.2 13.6 72 2.9 NNE 19 24 10 13 1017.4 1017.1 0.0
20/12:30am 18.7 16.3 13.8 73 2.8 NNE 19 22 10 12 1017.6 1017.4 0.0
20/12:00am 18.1 15.5 13.2 73 2.8 NNE 19 24 10 13 1017.8 1017.6 0.0
 
Date/Time
EST
Temp
°C
App
Temp
°C
Dew
Point
Rel
Hum
%
Delta-T
°C
Wind Press
QNH
hPa
Press
MSL
hPa
Rain
since 9 am
mm
Dir
 
Spd
km/h
Gust
km/h
Spd
kts
Gust
kts
19/11:30pm 18.5 15.7 13.1 71 3.1 NNE 20 24 11 13 1017.9 1017.7 0.0

Other Formats:

Comma delimited format used in spreadsheet applications
http://www.bom.gov.au/fwo/IDN60801/IDN60801.95734.axf

JavaScript Object Notation format (JSON) in row-major order
http://www.bom.gov.au/fwo/IDN60801/IDN60801.95734.json